Time;durP1;ratioP1;P1;durP2;ratioP2;P2;SDS_P1;SDS_P2;PMS_P1;PMS_P2;Temp;Humidity;BMP_temperature;BMP_pressure;BME280_temperature;BME280_humidity;BME280_pressure;Samples;Min_cycle;Max_cycle;Signal;HPM_P1;HPM_P2
2023/01/07 00:01:50;;;;;;;;;20.20;18.80;;;;;12.85;70.72;99093.16;6285499;27;96830;-67
2023/01/07 00:04:53;;;;;;;;;21.20;19.80;;;;;12.92;70.25;99106.59;6299838;27;97064;-68
2023/01/07 00:07:58;;;;;;;;;22.00;20.50;;;;;12.94;70.06;99110.72;6295580;27;96401;-68
2023/01/07 00:11:02;;;;;;;;;20.00;18.00;;;;;12.97;69.84;99114.84;6305070;27;96475;-68
2023/01/07 00:14:09;;;;;;;;;21.40;19.40;;;;;12.94;70.16;99110.72;6311016;27;96698;-69
2023/01/07 00:17:12;;;;;;;;;22.00;19.00;;;;;13.02;69.76;99109.56;6307612;27;96453;-69
2023/01/07 00:20:15;;;;;;;;;19.00;18.00;;;;;13.01;69.52;99107.91;6302796;27;99743;-69
2023/01/07 00:23:20;;;;;;;;;18.75;17.75;;;;;12.98;69.96;99113.78;6289987;27;96072;-69
2023/01/07 00:26:26;;;;;;;;;18.80;16.80;;;;;13.07;69.47;99125.09;6295448;27;96310;-68
2023/01/07 00:29:30;;;;;;;;;22.00;19.00;;;;;13.01;69.76;99119.56;6304023;27;96963;-69
2023/01/07 00:32:53;;;;;;;;;18.80;18.00;;;;;13.09;69.20;99117.59;6312539;27;96468;-69
2023/01/07 00:36:00;;;;;;;;;18.40;17.00;;;;;13.18;68.57;99121.63;6312971;27;96319;-69
2023/01/07 00:39:06;;;;;;;;;23.40;21.00;;;;;13.18;68.26;99118.94;6309043;27;96291;-68
2023/01/07 00:45:34;;;;;;;;;19.00;17.20;;;;;13.13;68.21;99149.41;6294935;27;96788;-69
2023/01/07 00:48:37;;;;;;;;;22.00;20.40;;;;;13.15;67.91;99135.63;6306419;27;96383;-69
2023/01/07 00:51:41;;;;;;;;;20.60;18.40;;;;;13.13;68.02;99135.03;6308086;27;96304;-68
2023/01/07 00:54:44;;;;;;;;;21.20;20.20;;;;;13.15;67.79;99133.72;6291909;27;96811;-69
2023/01/07 00:57:48;;;;;;;;;20.00;18.00;;;;;13.12;67.71;99128.78;6311166;27;96431;-68
2023/01/07 01:00:56;;;;;;;;;21.00;19.00;;;;;13.12;67.29;99120.69;6310783;27;96833;-68
2023/01/07 01:04:01;;;;;;;;;17.25;16.75;;;;;13.17;67.42;99149.75;6286711;27;98386;-71
2023/01/07 01:07:04;;;;;;;;;21.40;18.40;;;;;13.20;67.19;99146.56;6300425;27;96640;-69
2023/01/07 01:10:11;;;;;;;;;20.60;18.60;;;;;13.15;67.43;99146.44;6310435;27;96391;-69
2023/01/07 01:13:17;;;;;;;;;17.00;15.80;;;;;13.13;66.58;99141.28;6293399;27;96647;-69
2023/01/07 01:16:22;;;;;;;;;22.00;21.00;;;;;13.25;66.55;99157.53;6307960;27;96900;-69
2023/01/07 01:19:25;;;;;;;;;19.00;17.00;;;;;13.24;66.73;99162.13;6293079;27;97030;-68
2023/01/07 01:22:28;;;;;;;;;20.00;19.00;;;;;13.21;66.53;99151.75;6303815;27;96260;-69
2023/01/07 01:25:32;;;;;;;;;20.00;18.00;;;;;13.28;66.41;99162.50;6298072;27;96285;-69
2023/01/07 01:28:35;;;;;;;;;18.60;17.00;;;;;13.27;66.04;99158.97;6311087;27;96341;-69
2023/01/07 01:31:40;;;;;;;;;19.80;17.80;;;;;13.36;65.93;99156.75;6292335;27;96561;-69
2023/01/07 01:34:44;;;;;;;;;18.00;17.25;;;;;13.32;65.97;99150.16;6292446;27;96265;-68
2023/01/07 01:37:47;;;;;;;;;16.00;15.25;;;;;13.32;65.77;99150.16;6300167;27;96833;-68
2023/01/07 01:40:51;;;;;;;;;18.60;18.00;;;;;13.25;66.14;99162.94;6293307;27;96676;-70
2023/01/07 01:43:54;;;;;;;;;18.40;16.00;;;;;13.27;65.75;99163.56;6294773;27;96675;-69
2023/01/07 01:47:01;;;;;;;;;17.00;15.00;;;;;13.32;65.46;99160.97;6311664;27;96227;-67
2023/01/07 01:50:10;;;;;;;;;18.60;17.00;;;;;13.39;64.93;99151.66;6315534;27;97103;-68
2023/01/07 01:53:19;;;;;;;;;19.00;18.00;;;;;13.30;65.17;99152.25;6300696;27;96252;-68
2023/01/07 01:56:29;;;;;;;;;18.60;17.00;;;;;13.30;64.88;99157.66;6315959;27;97058;-69
2023/01/07 01:59:38;;;;;;;;;16.20;15.20;;;;;13.26;65.03;99160.00;6306828;27;96903;-68
2023/01/07 02:02:49;;;;;;;;;18.60;17.00;;;;;13.07;65.10;99135.94;6290230;27;96346;-68
2023/01/07 02:05:53;;;;;;;;;17.00;16.20;;;;;13.22;64.91;99166.97;6291622;27;96451;-68
2023/01/07 02:08:56;;;;;;;;;22.40;18.40;;;;;13.26;64.75;99170.03;6302137;27;96218;-68
2023/01/07 02:12:14;;;;;;;;;17.75;16.75;;;;;13.25;64.70;99160.25;6307972;27;96763;-68
2023/01/07 02:15:27;;;;;;;;;19.00;17.40;;;;;13.28;64.46;99170.63;6315924;27;96868;-69
2023/01/07 02:19:00;;;;;;;;;20.00;19.00;;;;;13.27;64.42;99166.25;6297028;27;99070;-68
2023/01/07 02:22:13;;;;;;;;;20.00;18.00;;;;;13.25;64.38;99169.19;6307571;27;97536;-68
2023/01/07 02:25:42;;;;;;;;;18.00;16.00;;;;;13.31;64.00;99164.72;6314184;27;96211;-69
2023/01/07 02:29:10;;;;;;;;;18.75;18.75;;;;;13.27;64.01;99172.50;6293742;27;96007;-69
2023/01/07 02:32:31;;;;;;;;;16.00;15.00;;;;;13.34;63.93;99175.91;6307866;27;96537;-68
2023/01/07 02:35:59;;;;;;;;;18.80;18.00;;;;;13.30;63.78;99168.50;6310215;27;97538;-69
2023/01/07 02:39:30;;;;;;;;;20.00;18.40;;;;;13.34;63.85;99183.25;6303967;27;96354;-68
2023/01/07 02:42:42;;;;;;;;;20.00;19.00;;;;;13.29;63.58;99169.56;6287337;27;97369;-69
2023/01/07 02:45:53;;;;;;;;;16.40;15.00;;;;;13.37;63.55;99178.19;6289551;27;96397;-68
2023/01/07 02:49:00;;;;;;;;;16.60;16.00;;;;;13.38;63.41;99170.88;6302773;27;96467;-68
2023/01/07 02:52:19;;;;;;;;;16.40;15.40;;;;;13.42;63.12;99169.34;6301262;27;97332;-68
2023/01/07 02:55:35;;;;;;;;;18.60;17.00;;;;;13.39;63.10;99180.63;6289330;27;96945;-68
2023/01/07 02:58:57;;;;;;;;;20.00;19.00;;;;;13.30;62.98;99172.03;6308363;27;97365;-69
2023/01/07 03:02:25;;;;;;;;;20.00;19.00;;;;;13.35;62.83;99180.28;6314714;27;96565;-69
2023/01/07 03:05:51;;;;;;;;;20.00;19.50;;;;;13.22;62.99;99158.00;6291515;27;96520;-68
2023/01/07 03:09:03;;;;;;;;;19.50;19.00;;;;;13.25;63.17;99171.06;6314187;27;96640;-69
2023/01/07 03:12:14;;;;;;;;;21.75;19.50;;;;;13.22;63.40;99179.66;6300308;27;96633;-68
2023/01/07 03:15:22;;;;;;;;;25.60;22.40;;;;;13.30;63.43;99179.31;6295722;27;97590;-69
2023/01/07 03:18:29;;;;;;;;;19.00;17.60;;;;;13.33;63.31;99184.28;6314017;27;96242;-68
2023/01/07 03:21:37;;;;;;;;;21.00;19.00;;;;;13.32;63.17;99177.22;6309836;27;96486;-69
2023/01/07 03:24:44;;;;;;;;;21.00;19.00;;;;;13.33;63.35;99181.59;6314407;27;97961;-69
2023/01/07 03:27:50;;;;;;;;;18.60;17.20;;;;;13.30;63.40;99176.63;6309134;27;96783;-69
2023/01/07 03:30:57;;;;;;;;;23.00;20.40;;;;;13.26;63.16;99172.72;6302093;27;96564;-68
2023/01/07 03:34:05;;;;;;;;;20.00;18.00;;;;;13.19;62.83;99159.31;6313674;27;96268;-68
2023/01/07 03:37:13;;;;;;;;;19.80;16.00;;;;;13.22;62.93;99185.91;6295898;27;96786;-68
2023/01/07 03:40:19;;;;;;;;;18.00;16.40;;;;;13.16;63.32;99181.41;6288933;27;96273;-69
2023/01/07 03:43:23;;;;;;;;;17.80;17.00;;;;;13.12;63.48;99174.00;6341432;27;96367;-69
2023/01/07 03:46:28;;;;;;;;;17.25;16.25;;;;;13.09;63.18;99177.13;6307988;27;96288;-69
2023/01/07 03:49:33;;;;;;;;;20.40;18.60;;;;;13.06;63.23;99180.28;6304976;27;96729;-69
2023/01/07 03:52:38;;;;;;;;;19.00;18.00;;;;;13.00;63.57;99182.03;6300461;27;96598;-68
2023/01/07 03:55:42;;;;;;;;;21.00;19.00;;;;;12.91;63.78;99176.13;6310394;27;97176;-69
2023/01/07 03:58:45;;;;;;;;;21.00;19.25;;;;;12.86;64.06;99183.28;6299848;27;96429;-68
2023/01/07 04:01:49;;;;;;;;;18.80;17.80;;;;;12.78;64.15;99181.72;6311798;27;96301;-69
2023/01/07 04:04:52;;;;;;;;;19.00;17.00;;;;;12.68;64.05;99183.31;6315456;27;96294;-68
2023/01/07 04:07:58;;;;;;;;;20.50;18.00;;;;;12.60;64.01;99173.66;6307811;27;96775;-68
2023/01/07 04:11:06;;;;;;;;;19.00;17.00;;;;;12.50;64.55;99171.47;6300752;27;96279;-69
2023/01/07 04:14:10;;;;;;;;;18.25;17.25;;;;;12.44;64.98;99176.97;6302446;27;96344;-69
2023/01/07 04:17:14;;;;;;;;;22.00;19.40;;;;;12.37;64.38;99179.72;6301619;27;96714;-68
2023/01/07 04:20:17;;;;;;;;;19.60;19.00;;;;;12.30;64.58;99179.00;6283283;27;96832;-69
2023/01/07 04:23:23;;;;;;;;;20.80;18.80;;;;;12.21;65.04;99183.06;6305498;27;97268;-69
2023/01/07 04:26:28;;;;;;;;;21.60;20.00;;;;;12.05;64.66;99157.44;6287250;27;97255;-69
2023/01/07 04:29:31;;;;;;;;;17.00;17.00;;;;;12.07;64.69;99182.34;6298833;27;96877;-69
2023/01/07 04:32:36;;;;;;;;;20.00;19.00;;;;;12.00;64.93;99189.72;6293253;27;96897;-69
2023/01/07 04:35:39;;;;;;;;;20.00;18.40;;;;;11.96;65.08;99179.59;6300961;27;96368;-68
2023/01/07 04:38:45;;;;;;;;;18.50;18.00;;;;;11.92;64.80;99192.72;6310275;27;96438;-69
2023/01/07 04:41:48;;;;;;;;;20.00;19.00;;;;;11.83;65.62;99185.91;6307081;27;96939;-69
2023/01/07 04:44:53;;;;;;;;;19.00;18.00;;;;;11.80;65.73;99189.09;6315883;27;96173;-68
2023/01/07 04:47:57;;;;;;;;;23.00;20.00;;;;;11.77;65.67;99188.72;6288385;27;97542;-69
2023/01/07 04:51:02;;;;;;;;;19.00;18.00;;;;;11.70;65.93;99180.63;6302985;27;96499;-69
2023/01/07 04:54:08;;;;;;;;;17.80;15.40;;;;;11.70;65.93;99184.16;6301740;27;96677;-68
2023/01/07 04:57:12;;;;;;;;;21.00;18.60;;;;;11.64;66.50;99184.19;6306836;27;97156;-69
2023/01/07 05:00:16;;;;;;;;;19.00;18.00;;;;;11.59;66.75;99189.44;6289989;27;96766;-68
2023/01/07 05:03:23;;;;;;;;;20.20;18.80;;;;;11.56;66.98;99182.63;6303407;27;96575;-68
2023/01/07 05:06:27;;;;;;;;;22.60;19.60;;;;;11.56;66.86;99187.19;6311237;27;96422;-68
2023/01/07 05:09:33;;;;;;;;;21.00;20.00;;;;;11.58;66.69;99196.72;6298042;27;96288;-68
2023/01/07 05:12:37;;;;;;;;;21.00;20.00;;;;;11.60;66.73;99205.44;6308301;27;96964;-68
2023/01/07 05:15:43;;;;;;;;;21.00;20.40;;;;;11.60;66.38;99194.63;6306927;27;97155;-69
2023/01/07 05:18:48;;;;;;;;;22.00;21.00;;;;;11.64;66.82;99195.00;6305260;27;96241;-69
2023/01/07 05:21:51;;;;;;;;;21.50;19.50;;;;;11.67;66.11;99199.97;6304860;27;96249;-68
2023/01/07 05:24:57;;;;;;;;;21.40;19.00;;;;;11.66;66.01;99201.84;6296373;27;96870;-69
2023/01/07 05:28:02;;;;;;;;;22.00;20.00;;;;;11.68;66.02;99197.03;6269114;27;96883;-69
2023/01/07 05:31:08;;;;;;;;;23.75;21.25;;;;;11.68;66.35;99197.03;6308775;27;97184;-69
2023/01/07 05:34:13;;;;;;;;;22.00;21.60;;;;;11.70;66.02;99202.22;6294111;27;96155;-69
2023/01/07 05:37:18;;;;;;;;;21.00;20.00;;;;;11.70;65.90;99207.63;6310770;27;96188;-67
2023/01/07 05:40:24;;;;;;;;;21.60;20.60;;;;;11.64;65.99;99206.63;6299535;27;96448;-68
2023/01/07 05:43:28;;;;;;;;;20.00;19.00;;;;;11.60;66.06;99201.91;6292670;27;97367;-68
2023/01/07 05:46:31;;;;;;;;;22.40;20.40;;;;;11.56;65.62;99206.09;6311983;27;96731;-69
2023/01/07 05:49:35;;;;;;;;;21.60;19.80;;;;;11.53;66.29;99211.94;6292649;27;96745;-69
2023/01/07 05:52:38;;;;;;;;;21.60;21.00;;;;;11.50;66.13;99206.97;6312501;27;96280;-69
2023/01/07 05:55:43;;;;;;;;;19.20;18.60;;;;;11.53;66.43;99211.94;6315644;27;96619;-69
2023/01/07 05:58:47;;;;;;;;;24.80;20.20;;;;;11.54;66.08;99209.00;6301994;27;96915;-69
2023/01/07 06:01:50;;;;;;;;;20.00;19.00;;;;;11.55;66.02;99212.53;6307006;27;96302;-69
2023/01/07 06:04:54;;;;;;;;;23.00;21.00;;;;;11.53;66.48;99214.66;6294372;27;98539;-64
2023/01/07 06:07:57;;;;;;;;;24.75;21.25;;;;;11.49;66.28;99214.25;6305029;27;97821;-65
2023/01/07 06:11:03;;;;;;;;;21.40;19.00;;;;;11.48;66.64;99218.00;6303969;27;98778;-65
2023/01/07 06:14:07;;;;;;;;;22.00;20.40;;;;;11.44;66.16;99214.06;6300693;27;96211;-65
2023/01/07 06:17:10;;;;;;;;;20.50;20.00;;;;;11.47;66.20;99220.91;6303521;27;96293;-64
2023/01/07 06:20:14;;;;;;;;;23.60;20.60;;;;;11.48;66.38;99220.72;6306587;27;96852;-65
2023/01/07 06:23:17;;;;;;;;;28.00;24.00;;;;;11.48;66.30;99219.88;6303889;27;96468;-65
2023/01/07 06:26:22;;;;;;;;;23.00;21.00;;;;;11.38;66.50;99211.44;6297366;27;96249;-64
2023/01/07 06:29:26;;;;;;;;;22.00;21.00;;;;;11.46;66.14;99230.06;6294428;27;96543;-65
2023/01/07 06:32:29;;;;;;;;;22.00;20.50;;;;;11.45;66.09;99221.13;6310120;27;96944;-64
2023/01/07 06:35:33;;;;;;;;;24.00;22.00;;;;;11.45;66.12;99225.69;6298297;27;96746;-64
2023/01/07 06:38:37;;;;;;;;;20.00;19.00;;;;;11.42;64.96;99223.44;6311281;27;96453;-68
2023/01/07 06:41:41;;;;;;;;;24.40;21.00;;;;;11.34;64.82;99227.22;6302385;27;96504;-65
2023/01/07 06:44:45;;;;;;;;;24.80;21.80;;;;;11.32;64.67;99226.63;6313146;27;97142;-64
2023/01/07 06:47:48;;;;;;;;;24.60;22.60;;;;;11.15;65.04;99215.50;6300212;27;96845;-65
2023/01/07 06:50:52;;;;;;;;;21.67;21.67;;;;;11.23;64.53;99238.72;6312447;27;97274;-66
2023/01/07 06:53:55;;;;;;;;;24.00;22.00;;;;;11.17;64.06;99242.28;6317268;27;96282;-66
2023/01/07 06:57:00;;;;;;;;;25.40;22.00;;;;;11.13;64.54;99244.59;6317300;27;96412;-65
2023/01/07 07:00:04;;;;;;;;;23.00;20.00;;;;;11.12;64.33;99239.41;6312907;27;97635;-65
2023/01/07 07:03:07;;;;;;;;;26.00;24.00;;;;;11.17;64.54;99247.69;6316314;27;96267;-65
2023/01/07 07:06:11;;;;;;;;;27.00;24.50;;;;;11.23;64.26;99242.25;6315807;27;96168;-65
2023/01/07 07:09:14;;;;;;;;;22.00;21.00;;;;;11.28;64.40;99242.44;6307503;27;97082;-65
2023/01/07 07:12:19;;;;;;;;;24.80;21.80;;;;;11.36;64.56;99238.63;6308693;27;96021;-65
2023/01/07 07:15:22;;;;;;;;;22.00;20.40;;;;;11.47;63.62;99232.53;6306802;27;97125;-66
2023/01/07 07:18:26;;;;;;;;;23.80;20.80;;;;;11.57;62.40;99238.28;6311619;27;96309;-65
2023/01/07 07:21:29;;;;;;;;;22.40;21.00;;;;;11.64;61.53;99230.94;6314642;27;96258;-64
2023/01/07 07:24:33;;;;;;;;;20.00;20.00;;;;;11.79;61.38;99233.34;6319706;27;96207;-65
2023/01/07 07:27:38;;;;;;;;;22.00;20.25;;;;;12.71;59.18;99236.94;6319127;27;96307;-65
2023/01/07 07:30:41;;;;;;;;;23.00;20.00;;;;;14.21;53.69;99206.75;6297919;27;96255;-65
2023/01/07 07:33:49;;;;;;;;;22.00;21.00;;;;;16.01;49.31;99242.28;6308137;27;96815;-65
2023/01/07 07:36:53;;;;;;;;;20.80;20.00;;;;;17.56;46.64;99245.59;6303838;27;97732;-67
2023/01/07 07:39:56;;;;;;;;;19.80;18.80;;;;;19.06;43.64;99243.38;6320981;27;96777;-66
2023/01/07 07:43:01;;;;;;;;;22.00;20.40;;;;;20.28;40.33;99224.06;6305084;27;96983;-65
2023/01/07 07:46:14;;;;;;;;;19.00;18.80;;;;;21.57;38.25;99246.88;6297570;27;96977;-65
2023/01/07 07:49:18;;;;;;;;;21.60;19.60;;;;;22.39;36.11;99250.59;6314966;27;96598;-64
2023/01/07 07:52:21;;;;;;;;;18.60;17.60;;;;;23.16;34.77;99243.16;6307904;27;96882;-66
2023/01/07 07:55:25;;;;;;;;;19.60;19.00;;;;;23.98;33.67;99249.13;6314606;27;96538;-67
2023/01/07 07:58:30;;;;;;;;;19.40;19.40;;;;;24.76;31.91;99245.53;6307013;27;96655;-66
2023/01/07 08:01:34;;;;;;;;;20.00;19.00;;;;;24.90;31.52;99249.13;6305177;27;97051;-65
2023/01/07 08:04:39;;;;;;;;;19.20;18.80;;;;;25.04;31.08;99240.84;6308942;27;96257;-65
2023/01/07 08:07:43;;;;;;;;;17.50;16.50;;;;;25.72;30.19;99243.47;6315321;27;96253;-66
2023/01/07 08:10:47;;;;;;;;;19.00;18.00;;;;;26.60;28.65;99238.19;6310442;27;96802;-65
2023/01/07 08:13:52;;;;;;;;;20.25;20.25;;;;;27.58;27.88;99252.53;6301501;27;97015;-65
2023/01/07 08:16:55;;;;;;;;;17.60;17.40;;;;;28.38;26.01;99248.25;6308193;27;96827;-66
2023/01/07 08:19:58;;;;;;;;;19.75;18.25;;;;;29.07;25.15;99240.50;6308652;27;96269;-66
2023/01/07 08:23:03;;;;;;;;;18.80;18.00;;;;;29.68;24.37;99235.34;6301150;27;96228;-67
2023/01/07 08:26:07;;;;;;;;;19.20;17.20;;;;;30.23;23.72;99234.22;6314666;27;97049;-67
2023/01/07 08:29:12;;;;;;;;;18.00;16.40;;;;;30.56;23.05;99232.25;6303651;27;96241;-67
2023/01/07 08:32:15;;;;;;;;;18.00;17.80;;;;;31.03;22.30;99234.63;6305957;27;96404;-66
2023/01/07 08:35:18;;;;;;;;;18.40;17.00;;;;;31.35;21.77;99228.91;6311060;27;96235;-65
2023/01/07 08:38:23;;;;;;;;;18.00;16.50;;;;;31.72;21.75;99223.25;6300776;27;98172;-65
2023/01/07 08:41:26;;;;;;;;;18.00;16.00;;;;;32.07;21.00;99229.03;6307339;27;97584;-66
2023/01/07 08:44:33;;;;;;;;;18.60;17.00;;;;;32.53;20.92;99224.75;6312155;27;96249;-64
2023/01/07 08:47:37;;;;;;;;;17.80;15.60;;;;;33.16;20.36;99225.59;6308487;27;96484;-67
2023/01/07 08:50:40;;;;;;;;;16.00;15.00;;;;;33.77;20.37;99225.00;6308598;27;96599;-67
2023/01/07 08:53:43;;;;;;;;;20.00;18.00;;;;;34.17;19.22;99225.38;6316529;27;97173;-67
2023/01/07 08:56:47;;;;;;;;;18.50;16.00;;;;;34.31;18.65;99225.69;6305823;27;96543;-66
2023/01/07 08:59:52;;;;;;;;;17.00;15.50;;;;;34.38;18.10;99232.59;6311095;27;97102;-65
2023/01/07 09:02:55;;;;;;;;;16.40;16.00;;;;;34.68;18.30;99234.41;6316440;27;96884;-66
2023/01/07 09:05:58;;;;;;;;;17.00;16.40;;;;;35.02;18.33;99237.34;6318327;27;96802;-66
2023/01/07 09:09:02;;;;;;;;;15.00;15.00;;;;;35.18;17.76;99235.25;6308251;27;96392;-67
2023/01/07 09:12:06;;;;;;;;;15.60;15.00;;;;;35.27;17.89;99229.38;6310448;27;96932;-67
2023/01/07 09:15:14;;;;;;;;;14.00;13.75;;;;;35.28;17.72;99233.78;6317605;27;96725;-68
2023/01/07 09:18:17;;;;;;;;;14.75;14.00;;;;;35.50;17.55;99230.09;6321148;27;96274;-67
2023/01/07 09:21:21;;;;;;;;;18.00;17.40;;;;;35.67;17.17;99231.56;6319787;27;96721;-65
2023/01/07 09:24:24;;;;;;;;;16.00;14.00;;;;;35.73;17.04;99230.03;6315229;27;96374;-66
2023/01/07 09:27:28;;;;;;;;;12.60;12.60;;;;;35.72;16.74;99225.63;6314636;27;98198;-67
2023/01/07 09:30:32;;;;;;;;;12.80;12.00;;;;;35.93;17.05;99217.44;6305848;27;96630;-67
2023/01/07 09:33:36;;;;;;;;;11.00;10.75;;;;;36.37;16.51;99220.38;6316299;27;96503;-67
2023/01/07 09:36:39;;;;;;;;;14.00;12.00;;;;;35.94;16.48;99222.69;6320911;27;96764;-67
2023/01/07 09:39:43;;;;;;;;;14.40;14.00;;;;;36.03;16.95;99217.59;6323468;27;96290;-66
2023/01/07 09:42:56;;;;;;;;;12.60;12.00;;;;;36.36;16.28;99225.19;6319218;27;96357;-65
2023/01/07 09:46:07;;;;;;;;;12.00;11.80;;;;;36.41;15.77;99212.78;6322936;27;96303;-66
2023/01/07 09:49:17;;;;;;;;;11.00;10.00;;;;;36.19;15.71;99150.03;6316321;27;96305;-67
2023/01/07 09:52:26;;;;;;;;;13.00;13.00;;;;;36.80;15.76;99214.00;6314357;27;96380;-67
2023/01/07 09:55:34;;;;;;;;;11.50;10.75;;;;;37.05;15.59;99211.38;6316918;27;96232;-67
2023/01/07 09:58:39;;;;;;;;;13.00;12.00;;;;;37.05;15.74;99216.19;6317649;27;99325;-67
2023/01/07 10:01:50;;;;;;;;;13.00;12.50;;;;;36.74;15.84;99211.94;6317586;27;96675;-66
2023/01/07 10:05:02;;;;;;;;;14.25;13.25;;;;;36.24;15.72;99213.44;6319582;27;96291;-67
2023/01/07 10:08:18;;;;;;;;;12.60;12.00;;;;;35.46;16.61;99209.63;6317952;27;96271;-68
2023/01/07 10:11:45;;;;;;;;;13.00;12.00;;;;;35.24;16.84;99202.88;6319260;27;96447;-67
2023/01/07 10:15:15;;;;;;;;;12.00;12.00;;;;;35.38;17.03;99193.91;6307988;27;97473;-69
2023/01/07 10:18:32;;;;;;;;;10.40;10.00;;;;;35.34;16.61;99191.00;6322652;27;96700;-66
2023/01/07 10:21:41;;;;;;;;;13.00;11.00;;;;;34.78;16.97;99186.16;6306955;27;96997;-67
2023/01/07 10:24:50;;;;;;;;;11.60;10.60;;;;;33.80;17.64;99179.50;6314235;27;98545;-67
2023/01/07 10:27:59;;;;;;;;;12.00;11.00;;;;;33.12;18.29;99177.19;6309985;27;96627;-67
2023/01/07 10:31:06;;;;;;;;;10.60;9.60;;;;;32.99;18.01;99176.47;6307762;27;96404;-68
2023/01/07 10:34:19;;;;;;;;;9.00;9.00;;;;;33.35;18.03;99166.13;6312562;27;96516;-67
2023/01/07 10:37:29;;;;;;;;;10.80;10.80;;;;;33.82;17.55;99166.75;6305915;27;96892;-67
2023/01/07 10:40:41;;;;;;;;;10.75;9.00;;;;;34.04;17.20;99165.19;6316585;27;96351;-67
2023/01/07 10:44:03;;;;;;;;;11.00;10.00;;;;;33.54;17.83;99154.97;6306889;27;96860;-67
2023/01/07 10:47:18;;;;;;;;;9.80;8.20;;;;;32.67;18.52;99158.16;6310600;27;96393;-69
2023/01/07 10:50:32;;;;;;;;;8.40;8.00;;;;;31.10;19.69;99148.50;6309522;27;96408;-67
2023/01/07 10:53:48;;;;;;;;;13.00;13.00;;;;;29.58;22.06;99155.19;6308095;27;96635;-67
2023/01/07 10:56:56;;;;;;;;;13.60;13.00;;;;;28.28;23.21;99152.38;6314540;27;96384;-66
2023/01/07 11:00:04;;;;;;;;;17.00;15.00;;;;;26.99;24.34;99151.63;6307060;27;96406;-68
2023/01/07 11:03:18;;;;;;;;;16.60;16.60;;;;;25.97;26.13;99159.16;6306520;27;96206;-67
2023/01/07 11:06:38;;;;;;;;;12.80;12.00;;;;;25.41;26.11;99149.47;6313377;27;96442;-66
2023/01/07 11:09:44;;;;;;;;;11.60;11.60;;;;;24.64;27.48;99142.38;6309626;27;96280;-67
2023/01/07 11:12:51;;;;;;;;;12.20;11.60;;;;;24.63;27.64;99143.50;6310463;27;97694;-69
2023/01/07 11:15:58;;;;;;;;;13.00;12.60;;;;;24.26;27.95;99142.59;6306846;27;97552;-68
2023/01/07 11:19:05;;;;;;;;;15.40;14.60;;;;;23.63;28.99;99139.56;6309711;27;96461;-66
2023/01/07 11:22:28;;;;;;;;;14.00;13.00;;;;;22.93;30.17;99133.19;6305614;27;96932;-66
2023/01/07 11:25:32;;;;;;;;;11.75;10.75;;;;;23.94;29.37;99132.41;6307507;27;98368;-67
2023/01/07 11:28:37;;;;;;;;;11.60;9.60;;;;;23.71;28.42;99128.69;6312329;27;96364;-66
2023/01/07 11:31:48;;;;;;;;;7.00;7.00;;;;;23.07;28.33;99136.84;6309800;27;96415;-65
2023/01/07 11:34:58;;;;;;;;;9.00;8.00;;;;;22.74;29.23;99130.44;6306945;27;97337;-67
2023/01/07 11:38:23;;;;;;;;;7.80;6.80;;;;;23.69;28.29;99130.13;6324892;27;96348;-67
2023/01/07 11:41:26;;;;;;;;;9.00;8.00;;;;;24.71;27.36;99131.75;6324504;27;96819;-65
2023/01/07 11:44:29;;;;;;;;;9.80;9.80;;;;;25.37;26.00;99134.66;6314522;27;98509;-65
2023/01/07 11:47:33;;;;;;;;;8.20;8.00;;;;;24.80;26.88;99125.19;6317909;27;97484;-64
2023/01/07 11:50:39;;;;;;;;;11.00;10.00;;;;;23.83;27.67;99108.94;6323158;27;96805;-66
2023/01/07 11:53:46;;;;;;;;;10.00;10.00;;;;;22.70;29.43;99113.72;6317606;27;96518;-68
2023/01/07 11:56:50;;;;;;;;;14.40;12.00;;;;;21.69;31.37;99106.59;6322416;27;96649;-66
2023/01/07 12:00:14;;;;;;;;;9.50;9.00;;;;;20.79;32.16;99089.69;6319235;27;96324;-66
2023/01/07 12:03:17;;;;;;;;;12.00;10.75;;;;;20.57;33.59;99101.06;6317742;27;96247;-66
2023/01/07 12:06:25;;;;;;;;;11.00;10.40;;;;;21.37;32.49;99087.94;6307294;27;96470;-66
2023/01/07 12:09:37;;;;;;;;;9.75;9.75;;;;;22.98;30.61;99103.69;6319236;27;97334;-67
2023/01/07 12:12:44;;;;;;;;;11.00;11.00;;;;;24.42;28.21;99099.00;6309978;27;96206;-66
2023/01/07 12:15:52;;;;;;;;;11.00;10.00;;;;;25.85;26.13;99096.19;6311875;27;96444;-67
2023/01/07 12:19:17;;;;;;;;;8.40;8.00;;;;;27.01;24.78;99092.06;6323844;27;97596;-66
2023/01/07 12:22:30;;;;;;;;;9.00;8.00;;;;;27.33;24.25;99085.19;6322695;27;96470;-70
2023/01/07 12:25:51;;;;;;;;;9.00;9.00;;;;;27.77;24.07;99080.44;6317924;27;97307;-68
2023/01/07 12:29:07;;;;;;;;;10.00;9.60;;;;;27.77;23.43;99075.72;6326250;27;96319;-66
2023/01/07 12:32:27;;;;;;;;;7.80;7.80;;;;;27.52;22.79;99074.63;6325998;27;96251;-68
2023/01/07 12:35:36;;;;;;;;;7.00;7.00;;;;;27.21;22.84;99067.66;6316480;27;96415;-67
2023/01/07 12:38:46;;;;;;;;;7.00;6.00;;;;;27.02;22.88;99067.97;6310274;27;96639;-66
2023/01/07 12:41:58;;;;;;;;;5.00;5.00;;;;;26.84;22.97;99069.88;6327543;27;96420;-67
2023/01/07 12:45:06;;;;;;;;;4.75;4.75;;;;;26.80;23.24;99068.91;6323210;27;96257;-65
2023/01/07 12:48:17;;;;;;;;;6.00;6.00;;;;;26.09;23.09;99062.69;6321150;27;96334;-68
2023/01/07 12:51:26;;;;;;;;;7.00;6.40;;;;;25.38;24.27;99056.25;6321113;27;96679;-66
2023/01/07 12:54:42;;;;;;;;;6.00;6.00;;;;;24.54;25.38;99066.22;6316779;27;97478;-68
2023/01/07 12:58:04;;;;;;;;;6.60;6.00;;;;;23.48;26.66;99060.84;6320453;27;96258;-67
2023/01/07 13:01:18;;;;;;;;;8.00;8.00;;;;;22.42;28.48;99052.25;6322121;27;97215;-66
2023/01/07 13:04:39;;;;;;;;;9.00;9.00;;;;;21.53;29.80;99052.94;6316576;27;96717;-64
2023/01/07 13:07:49;;;;;;;;;8.00;7.20;;;;;20.98;30.24;99054.19;6322858;27;96724;-67
2023/01/07 13:10:57;;;;;;;;;8.00;7.00;;;;;20.49;32.25;99059.72;6315079;27;96660;-66
2023/01/07 13:14:03;;;;;;;;;7.00;7.00;;;;;20.21;32.18;99052.97;6315412;27;96643;-66
2023/01/07 13:17:15;;;;;;;;;7.00;7.00;;;;;19.64;33.85;99051.53;6315340;27;96315;-69
2023/01/07 13:20:37;;;;;;;;;8.40;7.40;;;;;19.33;34.41;99047.16;6294860;27;97775;-68
2023/01/07 13:24:09;;;;;;;;;11.00;10.00;;;;;18.86;35.48;99045.50;6317938;27;97405;-66
2023/01/07 13:27:24;;;;;;;;;9.00;9.00;;;;;18.54;35.99;99034.81;6319424;27;96874;-67
2023/01/07 13:30:42;;;;;;;;;9.00;8.50;;;;;18.21;37.25;99040.69;6321626;27;97015;-67
2023/01/07 13:33:53;;;;;;;;;10.00;9.00;;;;;17.87;38.17;99034.81;6324478;27;96505;-67
2023/01/07 13:37:14;;;;;;;;;9.00;8.00;;;;;17.56;38.39;99039.22;6317126;27;96877;-67
2023/01/07 13:40:38;;;;;;;;;9.75;8.75;;;;;17.30;39.01;99037.41;6318539;27;96382;-68
2023/01/07 13:44:03;;;;;;;;;13.40;12.40;;;;;17.00;39.97;99045.38;6321222;27;96556;-65
2023/01/07 13:47:13;;;;;;;;;15.00;13.00;;;;;16.93;40.58;99052.91;6322054;27;97093;-66
2023/01/07 13:50:23;;;;;;;;;16.00;13.00;;;;;17.16;40.17;99047.94;6314134;27;96509;-65
2023/01/07 13:53:45;;;;;;;;;17.00;16.40;;;;;17.43;40.06;99038.88;6316781;27;96285;-66
2023/01/07 13:56:49;;;;;;;;;14.80;13.80;;;;;17.61;39.54;99046.66;6327239;27;96776;-66
2023/01/07 13:59:54;;;;;;;;;17.40;15.40;;;;;17.70;39.01;99053.25;6320648;27;96543;-66
2023/01/07 14:03:00;;;;;;;;;18.00;17.25;;;;;17.78;39.13;99051.94;6302736;27;96323;-67
2023/01/07 14:06:41;;;;;;;;;17.00;16.67;;;;;17.78;39.33;99047.31;6301792;27;96880;-65
2023/01/07 14:09:46;;;;;;;;;16.00;15.00;;;;;17.80;38.98;99041.56;6265044;27;96313;-65
2023/01/07 14:13:17;;;;;;;;;15.00;14.00;;;;;17.78;38.97;99041.88;6248410;27;96301;-67
2023/01/07 14:16:27;;;;;;;;;15.67;15.00;;;;;17.75;38.93;99043.19;6253461;27;96309;-66
2023/01/07 14:19:44;;;;;;;;;19.40;18.00;;;;;17.68;38.76;99036.34;6275251;27;97024;-67
2023/01/07 14:22:58;;;;;;;;;16.20;15.80;;;;;17.52;39.18;99040.03;6275316;27;96200;-66
2023/01/07 14:26:15;;;;;;;;;18.80;16.80;;;;;17.29;39.66;99033.88;6273903;27;96549;-66
2023/01/07 14:29:41;;;;;;;;;20.80;18.80;;;;;16.97;40.07;99034.97;6255479;27;97541;-65
2023/01/07 14:32:44;;;;;;;;;14.80;14.80;;;;;16.36;40.85;98982.66;6252205;27;97108;-65